Time;durP1;ratioP1;P1;durP2;ratioP2;P2;SDS_P1;SDS_P2;PMS_P1;PMS_P2;Temp;Humidity;BMP_temperature;BMP_pressure;BME280_temperature;BME280_humidity;BME280_pressure;Samples;Min_cycle;Max_cycle;Signal;HPM_P1;HPM_P2
2021/01/29 00:01:42;;;;;;;0.4;0.4;;;;;;;5.78;94.16309;928.0254;;;;
2021/01/29 00:04:07;;;;;;;1.4;0.8;;;;;;;5.58;94.45996;927.85;;;;
2021/01/29 00:06:32;;;;;;;0.5;0.5;;;;;;;5.63;94.19922;927.9322;;;;
2021/01/29 00:08:59;;;;;;;1.2;0.3;;;;;;;5.77;93.09082;927.9938;;;;
2021/01/29 00:11:24;;;;;;;0.4;0.3;;;;;;;5.69;92.71191;927.9297;;;;
2021/01/29 00:13:53;;;;;;;0.6;0.4;;;;;;;5.78;92.1084;927.8745;;;;
2021/01/29 00:16:19;;;;;;;0.3;0.3;;;;;;;5.84;91.70605;927.8786;;;;
2021/01/29 00:18:44;;;;;;;6;4.6;;;;;;;5.81;90.7041;927.9005;;;;
2021/01/29 00:21:11;;;;;;;0.6;0.6;;;;;;;5.77;91.66602;927.8349;;;;
2021/01/29 00:23:36;;;;;;;1.2;0.7;;;;;;;5.85;90.99414;927.7555;;;;
2021/01/29 00:26:01;;;;;;;0.8;0.5;;;;;;;5.85;90.50879;927.8123;;;;
2021/01/29 00:28:28;;;;;;;0.2;0.2;;;;;;;5.85;90.32813;927.8219;;;;
2021/01/29 00:30:54;;;;;;;0.3;0.3;;;;;;;5.88;90.16406;927.7929;;;;
2021/01/29 00:33:19;;;;;;;0.8;0.4;;;;;;;5.9;89.97754;927.7555;;;;
2021/01/29 00:35:44;;;;;;;1;0.4;;;;;;;5.94;89.84961;927.8088;;;;
2021/01/29 00:38:11;;;;;;;0.8;0.3;;;;;;;5.92;90.20801;927.8298;;;;
2021/01/29 00:40:36;;;;;;;0.9;0.5;;;;;;;5.93;89.97266;927.9406;;;;
2021/01/29 00:43:01;;;;;;;0.1;0.1;;;;;;;5.91;90.08008;927.8551;;;;
2021/01/29 00:45:26;;;;;;;0.3;0.2;;;;;;;5.87;90.0625;927.7866;;;;
2021/01/29 00:47:53;;;;;;;0;0;;;;;;;5.85;89.94434;927.7523;;;;
2021/01/29 00:50:18;;;;;;;0.1;0.1;;;;;;;5.9;89.57129;927.8148;;;;
2021/01/29 00:52:45;;;;;;;0.1;0.1;;;;;;;5.88;89.70117;927.7368;;;;
2021/01/29 00:55:10;;;;;;;0.1;0.1;;;;;;;5.8;89.55957;927.7302;;;;
2021/01/29 00:57:36;;;;;;;0.2;0.2;;;;;;;5.77;90.55957;927.6248;;;;
2021/01/29 01:00:01;;;;;;;0.1;0.1;;;;;;;5.71;90.8418;927.644;;;;
2021/01/29 01:02:28;;;;;;;0.1;0.1;;;;;;;5.46;90.95703;927.6181;;;;
2021/01/29 01:04:54;;;;;;;0.3;0.3;;;;;;;5.33;91.71973;927.7166;;;;
2021/01/29 01:07:19;;;;;;;1.4;0.6;;;;;;;5.31;91.6123;927.628;;;;
2021/01/29 01:09:44;;;;;;;1.1;0.6;;;;;;;5.12;92.25;927.6168;;;;
2021/01/29 01:12:11;;;;;;;1.3;0.7;;;;;;;5;93.69922;927.5731;;;;
2021/01/29 01:14:36;;;;;;;0.8;0.6;;;;;;;5.12;94.16699;927.5545;;;;
2021/01/29 01:17:01;;;;;;;1.6;1.1;;;;;;;5.09;93.38086;927.6236;;;;
2021/01/29 01:19:26;;;;;;;3.3;1.8;;;;;;;4.83;94.0332;927.5986;;;;
2021/01/29 01:21:55;;;;;;;5.4;1.2;;;;;;;4.89;93.73145;927.481;;;;
2021/01/29 01:24:20;;;;;;;4.4;1.3;;;;;;;4.92;93.43359;927.3978;;;;
2021/01/29 01:26:49;;;;;;;2.3;1.2;;;;;;;4.8;94.00488;927.2706;;;;
2021/01/29 01:29:14;;;;;;;2.5;1.3;;;;;;;4.83;93.57324;927.3739;;;;
2021/01/29 01:31:44;;;;;;;2.2;1;;;;;;;4.79;93.30469;927.4827;;;;
2021/01/29 01:34:09;;;;;;;2.3;1.6;;;;;;;4.73;94.01172;927.3722;;;;
2021/01/29 01:36:35;;;;;;;2;1;;;;;;;4.67;94.76563;927.2902;;;;
2021/01/29 01:39:00;;;;;;;3.4;1.2;;;;;;;4.61;94.91992;927.3084;;;;
2021/01/29 01:41:26;;;;;;;1.1;0.7;;;;;;;4.6;95.21094;927.1534;;;;
2021/01/29 01:43:51;;;;;;;1.4;1.2;;;;;;;4.52;95.2832;927.098;;;;
2021/01/29 01:46:17;;;;;;;1.3;1.1;;;;;;;4.47;95.41699;927.1074;;;;
2021/01/29 01:48:43;;;;;;;2.5;0.8;;;;;;;4.5;95.72949;927.0354;;;;
2021/01/29 01:51:08;;;;;;;2.1;1.1;;;;;;;4.63;95.76855;926.8821;;;;
2021/01/29 01:53:33;;;;;;;1.2;1;;;;;;;4.63;95.09375;926.8159;;;;
2021/01/29 01:55:58;;;;;;;1.1;0.8;;;;;;;4.72;95.79102;926.6964;;;;
2021/01/29 01:58:23;;;;;;;2.2;1;;;;;;;4.75;95.72949;926.491;;;;
2021/01/29 02:00:48;;;;;;;1;0.8;;;;;;;4.73;95.16016;926.4395;;;;
2021/01/29 02:03:14;;;;;;;1.7;1.1;;;;;;;4.68;95.00391;926.5312;;;;
2021/01/29 02:05:44;;;;;;;3;1;;;;;;;4.52;94.92285;926.4973;;;;
2021/01/29 02:08:09;;;;;;;2.6;1.3;;;;;;;4.33;95.5;926.4647;;;;
2021/01/29 02:10:44;;;;;;;2.8;1.1;;;;;;;4.26;95.96875;926.4606;;;;
2021/01/29 02:13:10;;;;;;;1.7;1;;;;;;;4.18;96.24316;926.5538;;;;
2021/01/29 02:15:53;;;;;;;2.7;0.7;;;;;;;4.2;96.30176;926.5397;;;;
2021/01/29 02:18:24;;;;;;;0.4;0.4;;;;;;;4.2;96.80762;926.6067;;;;
2021/01/29 02:20:51;;;;;;;1.4;0.9;;;;;;;4.25;97.18066;926.4108;;;;
2021/01/29 02:23:16;;;;;;;0.6;0.5;;;;;;;4.2;97.68555;926.5483;;;;
2021/01/29 02:26:27;;;;;;;0.9;0.6;;;;;;;4.29;97.08984;926.5208;;;;
2021/01/29 02:29:02;;;;;;;2.2;0.9;;;;;;;4.27;97.39844;926.5544;;;;
2021/01/29 02:31:32;;;;;;;0.6;0.6;;;;;;;4.38;97.20898;926.4999;;;;
2021/01/29 02:33:57;;;;;;;0.6;0.5;;;;;;;4.59;96.36914;926.5683;;;;
2021/01/29 02:36:24;;;;;;;0.9;0.6;;;;;;;4.68;95.5;926.5083;;;;
2021/01/29 02:38:49;;;;;;;1;0.6;;;;;;;4.66;95.02246;926.613;;;;
2021/01/29 02:41:14;;;;;;;2.5;1.4;;;;;;;4.65;95.02051;926.5032;;;;
2021/01/29 02:43:40;;;;;;;3;1.8;;;;;;;4.76;95.29004;926.5123;;;;
2021/01/29 02:46:08;;;;;;;0.5;0.4;;;;;;;4.84;95.16406;926.3394;;;;
2021/01/29 02:48:33;;;;;;;1.3;1;;;;;;;4.95;94.9834;926.2443;;;;
2021/01/29 02:51:02;;;;;;;2.8;1.4;;;;;;;4.92;93.88672;926.2014;;;;
2021/01/29 02:53:27;;;;;;;0.9;0.8;;;;;;;4.93;93.1084;926.2031;;;;
2021/01/29 02:55:54;;;;;;;1.4;1.1;;;;;;;4.83;92.73926;926.0475;;;;
2021/01/29 02:58:19;;;;;;;0.8;0.7;;;;;;;4.78;93.03223;926.0435;;;;
2021/01/29 03:00:45;;;;;;;0.9;0.7;;;;;;;4.78;93.04102;926.0931;;;;
2021/01/29 03:03:10;;;;;;;1.1;1;;;;;;;4.78;93.97656;926.0474;;;;
2021/01/29 03:05:39;;;;;;;0.9;0.9;;;;;;;4.87;94.27051;926.1047;;;;
2021/01/29 03:08:04;;;;;;;0.4;0.4;;;;;;;4.92;93.45801;925.8734;;;;
2021/01/29 03:10:29;;;;;;;1.8;0.9;;;;;;;4.86;93.47754;925.6741;;;;
2021/01/29 03:12:55;;;;;;;1.2;0.9;;;;;;;4.82;93.36719;925.5577;;;;
2021/01/29 03:15:26;;;;;;;0.7;0.5;;;;;;;4.89;93.18164;925.545;;;;
2021/01/29 03:17:53;;;;;;;0.4;0.4;;;;;;;4.94;92.71582;925.476;;;;
2021/01/29 03:20:20;;;;;;;0.6;0.5;;;;;;;4.93;92.29688;925.2488;;;;
2021/01/29 03:22:47;;;;;;;1;0.4;;;;;;;4.84;92.89941;925.2676;;;;
2021/01/29 03:25:12;;;;;;;0.6;0.6;;;;;;;4.91;92.95801;925.2874;;;;
2021/01/29 03:27:38;;;;;;;0.4;0.4;;;;;;;4.93;92.56738;925.4017;;;;
2021/01/29 03:30:04;;;;;;;0.9;0.8;;;;;;;4.84;92.30273;925.4128;;;;
2021/01/29 03:32:29;;;;;;;0.7;0.4;;;;;;;4.82;92.41992;925.5134;;;;
2021/01/29 03:34:57;;;;;;;1.8;0.8;;;;;;;4.82;92.41992;925.5427;;;;
2021/01/29 03:37:22;;;;;;;0.9;0.8;;;;;;;4.83;92.33398;925.5081;;;;
2021/01/29 03:39:47;;;;;;;1.4;0.8;;;;;;;4.81;92.67969;925.4306;;;;
2021/01/29 03:42:15;;;;;;;1.9;1.1;;;;;;;4.72;93.00879;925.3822;;;;
2021/01/29 03:44:42;;;;;;;1.1;0.5;;;;;;;4.47;94.30469;925.2815;;;;
2021/01/29 03:47:07;;;;;;;0.3;0.3;;;;;;;4.34;95.27637;925.2474;;;;
2021/01/29 03:49:32;;;;;;;2.5;0.5;;;;;;;4.39;95.92969;925.3347;;;;
2021/01/29 03:51:57;;;;;;;0.6;0.5;;;;;;;4.45;95.48047;925.2048;;;;
2021/01/29 03:54:22;;;;;;;2.9;1;;;;;;;4.51;95.3623;925.118;;;;
2021/01/29 03:56:47;;;;;;;1.1;0.6;;;;;;;4.59;95.5127;925.1164;;;;
2021/01/29 03:59:12;;;;;;;1.3;0.7;;;;;;;4.66;94.60547;925.0204;;;;
2021/01/29 04:02:34;;;;;;;0.6;0.5;;;;;;;4.63;94.03516;924.9414;;;;
2021/01/29 04:04:59;;;;;;;0.8;0.7;;;;;;;4.69;93.44043;924.9222;;;;
2021/01/29 04:07:25;;;;;;;0.6;0.6;;;;;;;4.66;92.91602;924.9322;;;;
2021/01/29 04:09:50;;;;;;;0.9;0.5;;;;;;;4.68;92.52441;924.96;;;;
2021/01/29 04:12:15;;;;;;;0.5;0.5;;;;;;;4.77;92.28711;924.8756;;;;
2021/01/29 04:14:40;;;;;;;3;1;;;;;;;4.61;93.21973;924.7992;;;;
2021/01/29 04:17:08;;;;;;;0.6;0.6;;;;;;;4.66;93.61426;924.7043;;;;
2021/01/29 04:19:33;;;;;;;0.5;0.5;;;;;;;4.66;93.0625;924.6248;;;;
2021/01/29 04:21:58;;;;;;;0.7;0.5;;;;;;;4.66;93.46875;924.5932;;;;
2021/01/29 04:24:23;;;;;;;1.2;0.6;;;;;;;4.79;93.16699;924.5399;;;;
2021/01/29 04:26:51;;;;;;;0.3;0.3;;;;;;;4.79;92.65137;924.5723;;;;
2021/01/29 04:29:16;;;;;;;1.4;0.4;;;;;;;4.85;92.56348;924.5455;;;;
2021/01/29 04:31:42;;;;;;;1.4;0.6;;;;;;;4.77;92.50098;924.5563;;;;
2021/01/29 04:34:12;;;;;;;0.8;0.6;;;;;;;4.87;92.37598;924.481;;;;
2021/01/29 04:36:37;;;;;;;1;0.6;;;;;;;4.67;92.1748;924.4727;;;;
2021/01/29 04:39:03;;;;;;;0.5;0.4;;;;;;;4.65;92.33789;924.4244;;;;
2021/01/29 04:41:28;;;;;;;1.3;0.8;;;;;;;4.52;92.76074;924.2991;;;;
2021/01/29 04:43:53;;;;;;;2.5;1.2;;;;;;;4.25;94.31152;924.253;;;;
2021/01/29 04:46:20;;;;;;;2;1.2;;;;;;;4.33;95.09473;924.231;;;;
2021/01/29 04:48:45;;;;;;;2.9;1.5;;;;;;;4.46;94.85254;924.0402;;;;
2021/01/29 04:51:10;;;;;;;2.1;1.2;;;;;;;4.53;94.5625;924.1038;;;;
2021/01/29 04:53:38;;;;;;;3.4;1.3;;;;;;;4.36;94.38184;924.0075;;;;
2021/01/29 04:57:31;;;;;;;1.5;1.2;;;;;;;4.16;97.2627;923.9069;;;;
2021/01/29 04:59:58;;;;;;;4.7;1.5;;;;;;;4.27;96.84668;923.8546;;;;
2021/01/29 05:02:21;;;;;;;2.2;1.2;;;;;;;4.13;96.86133;923.8908;;;;
2021/01/29 05:04:49;;;;;;;2.8;1.3;;;;;;;4.31;96.41602;923.8517;;;;
2021/01/29 05:07:14;;;;;;;3;1.8;;;;;;;4.22;95.94824;923.81;;;;
2021/01/29 05:09:44;;;;;;;1.6;1.1;;;;;;;4.46;95.4043;923.7856;;;;
2021/01/29 05:12:17;;;;;;;4.2;1.9;;;;;;;4.58;94.66504;923.7874;;;;
2021/01/29 05:14:44;;;;;;;4.6;1.4;;;;;;;4.56;93.61523;923.6596;;;;
2021/01/29 05:17:16;;;;;;;3.3;2;;;;;;;4.54;93.24902;923.5625;;;;
2021/01/29 05:19:43;;;;;;;5;2.2;;;;;;;4.46;93.71777;923.5168;;;;
2021/01/29 05:22:08;;;;;;;3.6;1.3;;;;;;;4.54;93.40723;923.4891;;;;
2021/01/29 05:24:37;;;;;;;3.9;2.7;;;;;;;4.47;93.3125;923.4003;;;;
2021/01/29 05:27:02;;;;;;;12.2;4.3;;;;;;;4.39;93.94922;923.3096;;;;
2021/01/29 05:29:27;;;;;;;6.5;2.2;;;;;;;4.34;93.95996;923.3604;;;;
2021/01/29 05:31:52;;;;;;;2.9;1.3;;;;;;;4.33;94.52051;923.2523;;;;
2021/01/29 05:34:17;;;;;;;4.4;1.7;;;;;;;4.39;94.16113;923.2961;;;;
2021/01/29 05:36:44;;;;;;;1.9;1.4;;;;;;;4.27;95.24902;923.2598;;;;
2021/01/29 05:39:09;;;;;;;3;1.7;;;;;;;4.36;94.99902;923.3078;;;;
2021/01/29 05:41:34;;;;;;;3.1;1.9;;;;;;;4.5;94.58105;923.1437;;;;
2021/01/29 05:43:59;;;;;;;4.6;1.5;;;;;;;4.54;94.22852;923.1818;;;;
2021/01/29 05:46:25;;;;;;;2.9;1.3;;;;;;;4.65;93.84961;923.1403;;;;
2021/01/29 05:48:50;;;;;;;1.4;1;;;;;;;4.72;93.5498;923.0564;;;;
2021/01/29 05:51:17;;;;;;;1.6;1.2;;;;;;;4.66;94.09863;923.0024;;;;
2021/01/29 05:53:44;;;;;;;0.6;0.6;;;;;;;4.77;95.41797;923.0126;;;;
2021/01/29 05:56:09;;;;;;;0.6;0.6;;;;;;;4.81;95.4375;922.9682;;;;
2021/01/29 05:58:36;;;;;;;0.5;0.4;;;;;;;4.98;94.83398;922.9872;;;;
2021/01/29 06:01:03;;;;;;;1.1;0.7;;;;;;;4.97;94.52734;922.7143;;;;
2021/01/29 06:03:35;;;;;;;1.1;0.8;;;;;;;4.86;94.72656;923;;;;
2021/01/29 06:06:02;;;;;;;0.3;0.3;;;;;;;4.72;94.85645;922.7908;;;;
2021/01/29 06:08:30;;;;;;;0.1;0.1;;;;;;;4.75;96.37207;922.9983;;;;
2021/01/29 06:10:55;;;;;;;0.3;0.3;;;;;;;5;96.00098;922.8928;;;;
2021/01/29 06:13:20;;;;;;;0.8;0.5;;;;;;;5.12;94.98828;922.8502;;;;
2021/01/29 06:15:55;;;;;;;0.3;0.3;;;;;;;5.17;95;922.7076;;;;
2021/01/29 06:18:20;;;;;;;0.8;0.3;;;;;;;5.35;94.88184;922.7559;;;;
2021/01/29 06:20:45;;;;;;;1.3;0.8;;;;;;;5.36;93.76758;922.8397;;;;
2021/01/29 06:23:10;;;;;;;1.1;0.6;;;;;;;5.47;93.125;922.7242;;;;
2021/01/29 06:25:35;;;;;;;2;1.4;;;;;;;5.5;92.37695;922.6739;;;;
2021/01/29 06:28:04;;;;;;;2.9;1;;;;;;;5.44;92.72461;922.6184;;;;
2021/01/29 06:30:35;;;;;;;0.4;0.4;;;;;;;5.43;92.74316;922.7542;;;;
2021/01/29 06:33:00;;;;;;;0.5;0.3;;;;;;;5.47;93.02344;922.673;;;;
2021/01/29 06:35:25;;;;;;;0.2;0.2;;;;;;;5.43;93.26563;922.6713;;;;
2021/01/29 06:37:50;;;;;;;0.4;0.3;;;;;;;5.49;93.18555;922.677;;;;
2021/01/29 06:40:15;;;;;;;0.8;0.5;;;;;;;5.43;93.68359;922.6571;;;;
2021/01/29 06:42:41;;;;;;;0.4;0.4;;;;;;;5.54;92.9043;922.5287;;;;
2021/01/29 06:45:11;;;;;;;0.5;0.4;;;;;;;5.36;93.82324;922.6928;;;;
2021/01/29 06:47:39;;;;;;;0.7;0.6;;;;;;;5.48;92.79102;922.6864;;;;
2021/01/29 06:50:04;;;;;;;1;0.7;;;;;;;5.32;93.65625;922.6699;;;;
2021/01/29 06:52:29;;;;;;;3.9;0.7;;;;;;;5.43;93.46484;922.552;;;;
2021/01/29 06:55:09;;;;;;;0.7;0.4;;;;;;;5.37;93.70117;922.7907;;;;
2021/01/29 06:57:34;;;;;;;1.5;0.4;;;;;;;5.39;92.83691;922.6961;;;;
2021/01/29 07:00:00;;;;;;;0.5;0.5;;;;;;;5.26;94.10645;922.8653;;;;
2021/01/29 07:02:26;;;;;;;0.9;0.6;;;;;;;5.27;95.53906;922.7762;;;;
2021/01/29 07:04:53;;;;;;;1.1;0.8;;;;;;;5.38;95.2627;922.6322;;;;
2021/01/29 07:07:21;;;;;;;1.1;0.9;;;;;;;5.43;94.09863;922.8339;;;;
2021/01/29 07:09:47;;;;;;;0.5;0.5;;;;;;;5.29;94.6875;922.7921;;;;
2021/01/29 07:12:13;;;;;;;1.1;0.8;;;;;;;5.38;94.15527;922.6969;;;;
2021/01/29 07:14:39;;;;;;;1.7;1.2;;;;;;;5.4;93.51563;922.5375;;;;
2021/01/29 07:17:15;;;;;;;2.7;1;;;;;;;5.31;94.0166;922.5428;;;;
2021/01/29 07:19:40;;;;;;;7.1;0.9;;;;;;;5.41;94.14063;922.6688;;;;
2021/01/29 07:22:05;;;;;;;1.7;1;;;;;;;5.39;94.39355;922.7609;;;;
2021/01/29 07:24:32;;;;;;;0.5;0.5;;;;;;;5.47;94.32324;922.6225;;;;
2021/01/29 07:26:58;;;;;;;0.7;0.4;;;;;;;5.49;94.59668;922.8002;;;;
2021/01/29 07:29:26;;;;;;;0.4;0.4;;;;;;;5.59;94.46191;922.8036;;;;
2021/01/29 07:31:55;;;;;;;1.2;0.9;;;;;;;5.59;93.69434;922.5256;;;;
2021/01/29 07:34:21;;;;;;;0.5;0.4;;;;;;;5.59;93.66113;922.6425;;;;
2021/01/29 07:36:47;;;;;;;1;0.8;;;;;;;5.64;94.06543;922.8577;;;;
2021/01/29 07:39:14;;;;;;;1;0.8;;;;;;;5.63;94.34766;922.7724;;;;
2021/01/29 07:41:39;;;;;;;0.6;0.6;;;;;;;5.75;94.2832;922.7766;;;;
2021/01/29 07:44:07;;;;;;;0.7;0.6;;;;;;;5.86;93.13281;922.7115;;;;
2021/01/29 07:46:37;;;;;;;1.3;0.7;;;;;;;5.74;93.42383;922.6873;;;;
2021/01/29 07:49:02;;;;;;;1.8;0.8;;;;;;;5.87;93.27051;922.8395;;;;
2021/01/29 07:51:27;;;;;;;2.6;1.1;;;;;;;5.3;94.55664;922.7827;;;;
2021/01/29 07:53:54;;;;;;;2.6;1.4;;;;;;;5.57;94.09668;922.925;;;;
2021/01/29 07:56:19;;;;;;;1.7;1.1;;;;;;;5.68;93.97168;923.1633;;;;
2021/01/29 07:58:47;;;;;;;0.2;0.2;;;;;;;5.82;93.9248;923.2833;;;;
2021/01/29 08:01:13;;;;;;;0.5;0.3;;;;;;;5.99;93.33008;923.0825;;;;
2021/01/29 08:03:40;;;;;;;3.6;2.5;;;;;;;6.13;91.98047;923.2119;;;;
2021/01/29 08:06:05;;;;;;;1.4;1;;;;;;;6.08;92.64648;923.4487;;;;
2021/01/29 08:08:31;;;;;;;29.2;15;;;;;;;6.13;92.37598;923.1392;;;;
2021/01/29 08:10:56;;;;;;;3.5;2.2;;;;;;;5.98;92.09668;922.9016;;;;
2021/01/29 08:13:27;;;;;;;41.7;15.4;;;;;;;6.03;92.70508;922.8767;;;;
2021/01/29 08:16:03;;;;;;;5.9;3.8;;;;;;;6.1;92.21191;923.0237;;;;
2021/01/29 08:18:30;;;;;;;1.5;1.2;;;;;;;6.31;91.73633;923.1309;;;;
2021/01/29 08:20:55;;;;;;;3.2;2;;;;;;;6.3;91.03418;923.1917;;;;
2021/01/29 08:23:22;;;;;;;71.4;48.7;;;;;;;6.19;91.72461;923.4111;;;;
2021/01/29 08:25:47;;;;;;;3.6;1.1;;;;;;;6.2;91.84961;923.4568;;;;
2021/01/29 08:28:13;;;;;;;10.3;6.3;;;;;;;6.05;91.99707;923.0931;;;;
2021/01/29 08:30:39;;;;;;;5.9;3.2;;;;;;;6.18;92.22949;923.0563;;;;
2021/01/29 08:33:04;;;;;;;2.9;1.6;;;;;;;6.3;91.41797;923.1057;;;;
2021/01/29 08:35:29;;;;;;;1.7;1.4;;;;;;;6.43;90.94922;923.1589;;;;
2021/01/29 08:37:54;;;;;;;15.3;10.1;;;;;;;6.43;90.65527;923.0736;;;;
2021/01/29 08:40:20;;;;;;;1.6;1.1;;;;;;;6.42;90.92285;923.3976;;;;
2021/01/29 08:42:46;;;;;;;1;0.9;;;;;;;6.15;91.94141;923.7871;;;;
2021/01/29 08:45:13;;;;;;;1.1;1;;;;;;;6.25;91.39746;923.7955;;;;
2021/01/29 08:47:38;;;;;;;5.8;1.1;;;;;;;6.23;91.65137;923.8555;;;;
2021/01/29 08:50:03;;;;;;;1.3;1;;;;;;;6.14;92.56055;923.8661;;;;
2021/01/29 08:52:28;;;;;;;4.3;3.2;;;;;;;6.1;94.20117;924.009;;;;
2021/01/29 08:54:55;;;;;;;2.7;1.9;;;;;;;6.18;94.0498;924.0488;;;;
2021/01/29 08:57:20;;;;;;;1.3;1.1;;;;;;;6.26;93.24219;924.0446;;;;
2021/01/29 08:59:45;;;;;;;0.6;0.6;;;;;;;6.3;93.94141;924.3228;;;;
2021/01/29 09:02:14;;;;;;;1.5;0.7;;;;;;;6.27;95.05078;924.6887;;;;
2021/01/29 09:04:40;;;;;;;1.8;1;;;;;;;6.42;93.54883;924.4333;;;;
2021/01/29 09:07:05;;;;;;;1.2;0.9;;;;;;;6.5;93.52148;924.4026;;;;
2021/01/29 09:09:30;;;;;;;2.6;2;;;;;;;6.67;92.62891;924.3289;;;;
2021/01/29 09:11:55;;;;;;;2.1;1.8;;;;;;;6.64;93.0625;924.3723;;;;
2021/01/29 09:14:20;;;;;;;2.4;1.4;;;;;;;6.66;93.27148;924.2916;;;;
2021/01/29 09:16:49;;;;;;;2.4;1.3;;;;;;;6.86;93.02051;924.1378;;;;
2021/01/29 09:19:14;;;;;;;2.3;1.5;;;;;;;6.93;93.29688;924.1078;;;;
2021/01/29 09:21:40;;;;;;;1.7;1.2;;;;;;;6.98;92.68359;924.1529;;;;
2021/01/29 09:24:06;;;;;;;258.6;105.2;;;;;;;6.98;92.11816;924.1687;;;;
2021/01/29 09:26:31;;;;;;;2.9;1.8;;;;;;;6.91;91.50391;924.122;;;;
2021/01/29 09:28:56;;;;;;;114.9;45.1;;;;;;;6.89;91.56836;924.1505;;;;
2021/01/29 09:31:23;;;;;;;12.4;6.3;;;;;;;6.99;91.2832;924.0041;;;;
2021/01/29 09:33:48;;;;;;;23.9;12.9;;;;;;;7.08;90.73438;924.1531;;;;
2021/01/29 09:36:13;;;;;;;13.4;7.3;;;;;;;7.07;89.91699;924.0851;;;;
2021/01/29 09:38:40;;;;;;;21.1;9.8;;;;;;;6.97;89.10352;923.9519;;;;
2021/01/29 09:41:07;;;;;;;9.7;6;;;;;;;6.8;89.07031;924.1794;;;;
2021/01/29 09:43:32;;;;;;;5.5;1.9;;;;;;;6.68;89.21387;924.3003;;;;
2021/01/29 09:46:01;;;;;;;2;1.3;;;;;;;6.71;89.71875;924.4396;;;;
2021/01/29 09:48:29;;;;;;;1.1;1;;;;;;;6.75;89.7832;924.5567;;;;
2021/01/29 09:50:54;;;;;;;38.6;15.9;;;;;;;6.86;92.08301;924.5848;;;;
2021/01/29 09:53:21;;;;;;;6.6;3.5;;;;;;;7.06;91.02539;924.605;;;;
2021/01/29 09:55:44;;;;;;;4.9;1.9;;;;;;;6.84;88.83984;924.4187;;;;
2021/01/29 09:58:12;;;;;;;19.2;7.8;;;;;;;6.77;89.49219;924.4998;;;;
2021/01/29 10:00:38;;;;;;;12.7;6.9;;;;;;;6.86;90.16797;924.2628;;;;
2021/01/29 10:03:04;;;;;;;2.9;1.9;;;;;;;6.19;90.7832;924.1167;;;;
2021/01/29 10:05:30;;;;;;;9.5;4;;;;;;;6.63;90.74316;924.1264;;;;
2021/01/29 10:07:55;;;;;;;5.7;3.1;;;;;;;6.88;90.79688;924.1909;;;;
2021/01/29 10:10:24;;;;;;;4.1;2.5;;;;;;;7.3;90.03418;924.1365;;;;
2021/01/29 10:12:48;;;;;;;7.2;2.8;;;;;;;7.48;88.88184;924.0011;;;;
2021/01/29 10:15:14;;;;;;;0.8;0.8;;;;;;;7.39;88.32129;923.9867;;;;
2021/01/29 10:17:41;;;;;;;1.8;0.9;;;;;;;7.41;87.51855;923.9475;;;;
2021/01/29 10:20:13;;;;;;;2.5;1.5;;;;;;;7.79;86.64258;923.9832;;;;
2021/01/29 10:22:43;;;;;;;2.1;1.3;;;;;;;7.8;85.96484;923.9221;;;;
2021/01/29 10:25:10;;;;;;;2.1;0.9;;;;;;;7.87;86.43164;924.0275;;;;
2021/01/29 10:27:40;;;;;;;0.8;0.8;;;;;;;7.94;86.23047;923.86;;;;
2021/01/29 10:30:05;;;;;;;2.6;2.1;;;;;;;7.86;85.51074;923.8152;;;;
2021/01/29 10:32:33;;;;;;;2.8;1.7;;;;;;;7.84;85.47168;923.8445;;;;
2021/01/29 10:34:56;;;;;;;1.1;0.9;;;;;;;8.01;85.00781;923.5025;;;;
2021/01/29 10:37:24;;;;;;;2.7;1.3;;;;;;;7.39;86.84375;923.7216;;;;
2021/01/29 10:39:50;;;;;;;1.9;1.2;;;;;;;7.59;87.26172;923.8322;;;;
2021/01/29 10:42:18;;;;;;;2.9;0.7;;;;;;;7.69;86.79102;923.9256;;;;
2021/01/29 10:44:43;;;;;;;1.6;0.7;;;;;;;7.69;86.44043;923.9676;;;;
2021/01/29 10:47:09;;;;;;;2.1;1.2;;;;;;;7.97;84.71484;923.8052;;;;
2021/01/29 10:49:35;;;;;;;0.9;0.7;;;;;;;8.15;85.2168;923.9576;;;;
2021/01/29 10:52:00;;;;;;;4.9;0.7;;;;;;;8.17;84.95898;923.9916;;;;
2021/01/29 10:54:27;;;;;;;1.8;0.8;;;;;;;8.52;82.85742;923.9057;;;;
2021/01/29 10:56:52;;;;;;;2;1.2;;;;;;;8.67;82.2959;924.0446;;;;
2021/01/29 10:59:17;;;;;;;0.4;0.4;;;;;;;8.4;79.68652;923.9426;;;;
2021/01/29 11:01:42;;;;;;;2.3;0.7;;;;;;;8.54;79.69238;924.0285;;;;
2021/01/29 11:04:07;;;;;;;0.8;0.6;;;;;;;8.89;78.92578;924.0132;;;;
2021/01/29 11:06:32;;;;;;;0.4;0.4;;;;;;;9.09;78.16699;924.1881;;;;
2021/01/29 11:09:03;;;;;;;0.1;0.1;;;;;;;8.8;77.52148;924.193;;;;
2021/01/29 11:11:28;;;;;;;0.2;0.2;;;;;;;8.84;76.8457;924.158;;;;
2021/01/29 11:13:58;;;;;;;0;0;;;;;;;8.82;77.71777;924.0288;;;;
2021/01/29 11:16:28;;;;;;;0.6;0.5;;;;;;;8.87;76.0332;924.0499;;;;
2021/01/29 11:18:53;;;;;;;0.5;0.3;;;;;;;8.93;75.88379;923.9828;;;;
2021/01/29 11:21:19;;;;;;;0.3;0.3;;;;;;;8.97;75.37988;923.9308;;;;
2021/01/29 11:23:44;;;;;;;0.4;0.4;;;;;;;9.09;75.6377;923.7667;;;;
2021/01/29 11:26:13;;;;;;;1.3;0.3;;;;;;;9.13;71.16309;923.6995;;;;
2021/01/29 11:28:37;;;;;;;0;0;;;;;;;9.09;73.14844;923.6197;;;;
2021/01/29 11:31:03;;;;;;;0.3;0.3;;;;;;;9.18;71.6709;923.6426;;;;
2021/01/29 11:33:28;;;;;;;0.5;0.5;;;;;;;9.06;73.74414;923.5525;;;;
2021/01/29 11:35:53;;;;;;;0.7;0.3;;;;;;;8.9;75.57129;923.3948;;;;
2021/01/29 11:38:18;;;;;;;0.5;0.4;;;;;;;8.58;76.81055;923.4634;;;;
2021/01/29 11:40:46;;;;;;;0.5;0.2;;;;;;;8.48;78.57617;923.4332;;;;
2021/01/29 11:43:12;;;;;;;0.7;0.4;;;;;;;8.65;77.67578;923.5291;;;;
2021/01/29 11:45:37;;;;;;;1.3;0.8;;;;;;;8.71;76.94824;923.508;;;;
2021/01/29 11:48:03;;;;;;;0.6;0.5;;;;;;;8.62;76.85254;923.4777;;;;
2021/01/29 11:50:28;;;;;;;0.9;0.6;;;;;;;8.5;77.89844;923.4703;;;;
2021/01/29 11:52:53;;;;;;;0.4;0.4;;;;;;;8.91;77.2793;923.5463;;;;
2021/01/29 11:55:20;;;;;;;0.7;0.3;;;;;;;9.04;74.99219;923.6678;;;;
2021/01/29 11:57:44;;;;;;;0.1;0.1;;;;;;;9.51;72.85254;923.6576;;;;
2021/01/29 12:00:13;;;;;;;0.5;0.3;;;;;;;9.59;71.06836;923.5796;;;;
2021/01/29 12:02:38;;;;;;;0.1;0.1;;;;;;;9.98;69.2959;923.5869;;;;
2021/01/29 12:05:03;;;;;;;1;0.5;;;;;;;10.15;68.61621;923.6868;;;;
2021/01/29 12:07:28;;;;;;;0.7;0.4;;;;;;;10.17;67.8418;923.6778;;;;
2021/01/29 12:09:53;;;;;;;0.8;0.5;;;;;;;9.76;69.77246;923.7076;;;;
2021/01/29 12:12:19;;;;;;;0.3;0.3;;;;;;;9.49;69.50098;923.8508;;;;
2021/01/29 12:14:44;;;;;;;1.3;0.7;;;;;;;9.41;70.19531;923.8362;;;;
2021/01/29 12:17:13;;;;;;;0.2;0.2;;;;;;;9.08;70.07324;923.785;;;;
2021/01/29 12:19:38;;;;;;;0.2;0.1;;;;;;;9.02;71.15625;923.745;;;;
2021/01/29 12:22:03;;;;;;;0.5;0.3;;;;;;;8.68;78.33984;923.8526;;;;
2021/01/29 12:24:29;;;;;;;0.5;0.5;;;;;;;8.09;78.76855;923.6432;;;;
2021/01/29 12:26:54;;;;;;;1.2;0.7;;;;;;;8.16;79.81543;923.5826;;;;
2021/01/29 12:29:19;;;;;;;0.8;0.2;;;;;;;8.03;81.88965;923.791;;;;
2021/01/29 12:31:47;;;;;;;0.1;0;;;;;;;7.82;82.90332;923.8153;;;;
2021/01/29 12:34:14;;;;;;;1.5;0.9;;;;;;;7.44;80.55176;923.8041;;;;
2021/01/29 12:36:40;;;;;;;0.1;0.1;;;;;;;7.38;79.65625;923.7477;;;;
2021/01/29 12:39:06;;;;;;;0.2;0.2;;;;;;;7.55;81.21875;923.5162;;;;
2021/01/29 12:41:31;;;;;;;0.1;0.1;;;;;;;7.44;80.95996;923.4288;;;;
2021/01/29 12:43:58;;;;;;;0.1;0.1;;;;;;;7.42;80.70703;923.238;;;;
2021/01/29 12:46:23;;;;;;;0.4;0.4;;;;;;;7.39;83.10547;923.2758;;;;
2021/01/29 12:48:48;;;;;;;0;0;;;;;;;7.28;83.56934;923.3561;;;;
2021/01/29 12:51:14;;;;;;;0.4;0.4;;;;;;;7.4;83.52637;923.1713;;;;
2021/01/29 12:53:38;;;;;;;0.1;0.1;;;;;;;7.69;82.54883;923.192;;;;
2021/01/29 12:56:04;;;;;;;0.3;0.3;;;;;;;7.89;82.38477;923.2683;;;;
2021/01/29 12:58:29;;;;;;;7.9;4.8;;;;;;;8.15;82.13965;923.2656;;;;
2021/01/29 13:00:58;;;;;;;9.3;5.8;;;;;;;8.44;80.30859;923.355;;;;
2021/01/29 13:03:23;;;;;;;1.8;0.8;;;;;;;8.34;80.84668;923.3038;;;;
2021/01/29 13:05:50;;;;;;;3.4;1.7;;;;;;;8.49;80.03418;923.3332;;;;
2021/01/29 13:08:15;;;;;;;1.8;1.1;;;;;;;8.21;80.82227;923.6135;;;;
2021/01/29 13:10:52;;;;;;;2.1;1.2;;;;;;;7.94;81.07813;923.5723;;;;
2021/01/29 13:13:20;;;;;;;1.5;0.6;;;;;;;7.75;82.70996;923.8969;;;;
2021/01/29 13:15:50;;;;;;;3.5;0.9;;;;;;;7.46;83.53906;923.9196;;;;
2021/01/29 13:18:19;;;;;;;16.4;8.4;;;;;;;7.14;84.30371;924.2291;;;;
2021/01/29 13:20:45;;;;;;;1.2;0.8;;;;;;;7.02;82.54688;924.1895;;;;
2021/01/29 13:23:12;;;;;;;5.6;1.3;;;;;;;7.06;82.58789;924.1934;;;;
2021/01/29 13:25:44;;;;;;;0.2;0.2;;;;;;;7.19;81.57129;924.1617;;;;
2021/01/29 13:28:10;;;;;;;1;0.9;;;;;;;7.04;81.19141;924.0036;;;;
2021/01/29 13:30:41;;;;;;;1;0.3;;;;;;;7.09;82.57227;924.009;;;;
2021/01/29 13:33:09;;;;;;;0.4;0.2;;;;;;;7.12;82.74707;924.0558;;;;
2021/01/29 13:35:36;;;;;;;1.1;0.5;;;;;;;7.16;83.25195;924.108;;;;
2021/01/29 13:38:09;;;;;;;0.2;0.2;;;;;;;7.06;83.49316;924.1832;;;;
2021/01/29 13:40:29;;;;;;;0.3;0.2;;;;;;;6.99;83.96777;924.1774;;;;
2021/01/29 13:42:54;;;;;;;0.3;0.3;;;;;;;6.94;84.25195;924.1972;;;;
2021/01/29 13:45:19;;;;;;;0.1;0.1;;;;;;;;;;;;;
2021/01/29 13:47:45;;;;;;;0.8;0.5;;;;;;;;;;;;;
2021/01/29 13:50:10;;;;;;;0.4;0.4;;;;;;;;;;;;;
2021/01/29 13:52:36;;;;;;;0.9;0.8;;;;;;;;;;;;;
2021/01/29 13:55:00;;;;;;;2.6;1.6;;;;;;;;;;;;;
2021/01/29 13:57:25;;;;;;;1.7;0.9;;;;;;;;;;;;;
2021/01/29 13:59:51;;;;;;;0.8;0.5;;;;;;;;;;;;;
2021/01/29 14:02:16;;;;;;;0.5;0.5;;;;;;;;;;;;;
2021/01/29 14:04:41;;;;;;;0.3;0.3;;;;;;;;;;;;;
2021/01/29 14:07:08;;;;;;;1.3;0.8;;;;;;;;;;;;;
2021/01/29 14:09:32;;;;;;;1;0.5;;;;;;;;;;;;;
2021/01/29 14:11:57;;;;;;;1.1;0.5;;;;;;;;;;;;;
2021/01/29 14:14:23;;;;;;;1.1;0.5;;;;;;;;;;;;;
2021/01/29 14:16:48;;;;;;;2.3;0.6;;;;;;;;;;;;;
2021/01/29 14:19:13;;;;;;;0.7;0.7;;;;;;;;;;;;;
2021/01/29 14:21:38;;;;;;;33.9;14.7;;;;;;;;;;;;;
2021/01/29 14:24:03;;;;;;;10.7;5.6;;;;;;;;;;;;;
2021/01/29 14:26:28;;;;;;;8.1;3.3;;;;;;;;;;;;;
2021/01/29 14:28:56;;;;;;;7.2;2.9;;;;;;;;;;;;;
2021/01/29 14:31:21;;;;;;;44.1;23.4;;;;;;;;;;;;;
2021/01/29 14:33:48;;;;;;;41.9;18.6;;;;;;;;;;;;;
2021/01/29 14:36:13;;;;;;;7.8;3.8;;;;;;;;;;;;;
2021/01/29 14:38:38;;;;;;;6.3;2.9;;;;;;;;;;;;;
2021/01/29 14:41:03;;;;;;;3.9;2.2;;;;;;;;;;;;;
2021/01/29 14:43:29;;;;;;;2.2;1.2;;;;;;;;;;;;;
2021/01/29 14:45:53;;;;;;;1.8;0.5;;;;;;;;;;;;;
2021/01/29 14:48:18;;;;;;;11.9;1.4;;;;;;;;;;;;;
2021/01/29 14:50:47;;;;;;;1;0.4;;;;;;;;;;;;;
2021/01/29 14:53:12;;;;;;;0.5;0.3;;;;;;;;;;;;;
2021/01/29 14:55:42;;;;;;;0.5;0.5;;;;;;;;;;;;;
2021/01/29 14:58:09;;;;;;;1;0.5;;;;;;;;;;;;;